FKKD

Douala International Airport

Douala, Cameroon
TAF FKKD 182300Z 1900/2006 VRB03KT 8000 TS BKN013 FEW020CB TEMPO 1903/1908 2000 BR BECMG 1907/1909 NSW
Issued Valid From Valid To
Jan-18 @ 23:00 UTC
(3 hours ago)
Jan-19 @ 00:00 UTC
(2 hours ago)
Jan-20 @ 06:00 UTC
(-1 days ago)
Jan-19 @ 00:00 to Jan-19 @ 07:00
TAF FKKD 182300Z 1900/2006 VRB03KT 8000 TS BKN013 FEW020CB
Wind Visibility Clouds Conditions
Variable at 3 knots 7,998 meters
  • Broken at 1,300' AGL
  • Few at 2,000' AGL
  • Thunderstorm
Temporary Jan-19 @ 03:00 to Jan-19 @ 08:00
TEMPO 1903/1908 2000 BR
Visibility Conditions
1,996 meters
  • Mist
Becoming Jan-19 @ 07:00 to Jan-20 @ 06:00
BECMG 1907/1909 NSW
Wind Visibility Clouds Conditions
Variable at 3 knots 7,998 meters
  • Broken at 1,300' AGL
  • Few at 2,000' AGL
TAF FKKD 182300Z 1900/2006 VRB03KT 8000 TS BKN013 FEW020CB TEMPO 1903/1908 2000 BR BECMG 1907/1909 NSW
Issued Jan-18 @ 23:00 UTC
(3 hours ago)
Valid From Jan-19 @ 00:00 UTC
(2 hours ago)
Valid To Jan-20 @ 06:00 UTC
(-1 days ago)
Jan-19 @ 00:00 - Jan-19 @ 07:00
Wind Visibility
Variable at 3 knots 7,998 meters
Clouds
  • Broken at 1,300' AGL
  • Few at 2,000' AGL
Conditions
  • Thunderstorm
Temporary Jan-19 @ 03:00 - Jan-19 @ 08:00
Conditions
  • Mist
Becoming Jan-19 @ 07:00 - Jan-20 @ 06:00
Wind Visibility
Variable at 3 knots 7,998 meters
Clouds
  • Broken at 1,300' AGL
  • Few at 2,000' AGL
Conditions